Time;durP1;ratioP1;P1;durP2;ratioP2;P2;SDS_P1;SDS_P2;PMS_P1;PMS_P2;Temp;Humidity;BMP_temperature;BMP_pressure;BME280_temperature;BME280_humidity;BME280_pressure;Samples;Min_cycle;Max_cycle;Signal;HPM_P1;HPM_P2
2022/03/30 00:01:02;;;;;;;;;57.33;48.00;16.30;99.90;;;;;;5067440;28;8873;-45
2022/03/30 00:03:33;;;;;;;;;58.50;48.50;16.20;99.90;;;;;;5077650;28;8885;-49
2022/03/30 00:06:05;;;;;;;;;55.75;46.75;16.30;99.90;;;;;;5078448;28;11541;-49
2022/03/30 00:08:35;;;;;;;;;56.00;46.25;16.30;99.90;;;;;;5076377;28;12437;-49
2022/03/30 00:11:05;;;;;;;;;48.00;41.50;16.30;99.90;;;;;;5071456;28;11602;-48
2022/03/30 00:13:36;;;;;;;;;32.75;31.00;16.30;99.90;;;;;;5061364;28;11612;-46
2022/03/30 00:16:08;;;;;;;;;15.75;15.75;16.20;99.90;;;;;;5057202;28;11621;-47
2022/03/30 00:18:40;;;;;;;;;3.25;3.25;16.10;99.90;;;;;;5067370;28;11511;-47
2022/03/30 00:21:11;;;;;;;;;2.75;0.75;16.20;99.90;;;;;;5069882;28;11213;-49
2022/03/30 00:23:42;;;;;;;;;1.75;1.75;16.20;99.90;;;;;;5061061;28;10889;-48
2022/03/30 00:26:13;;;;;;;;;1.00;1.00;16.20;99.90;;;;;;5080191;28;10716;-47
2022/03/30 00:28:44;;;;;;;;;1.75;1.75;16.20;99.90;;;;;;5093233;28;10662;-47
2022/03/30 00:31:18;;;;;;;;;1.00;1.00;16.10;99.90;;;;;;5088951;28;10196;-48
2022/03/30 00:33:50;;;;;;;;;1.75;1.75;16.10;99.90;;;;;;5075224;28;10296;-47
2022/03/30 00:36:21;;;;;;;;;1.00;1.00;16.10;99.90;;;;;;5085963;28;10202;-49
2022/03/30 00:38:52;;;;;;;;;2.00;2.00;16.10;99.90;;;;;;5087427;27;11030;-47
2022/03/30 00:41:23;;;;;;;;;1.00;1.00;16.10;99.90;;;;;;5084620;28;10322;-45
2022/03/30 00:43:55;;;;;;;;;1.00;1.00;16.00;99.90;;;;;;5097050;28;10079;-49
2022/03/30 00:46:26;;;;;;;;;1.00;1.00;15.90;99.90;;;;;;5082386;28;10012;-49
2022/03/30 00:48:57;;;;;;;;;3.25;1.00;16.00;99.90;;;;;;5081567;28;10196;-50
2022/03/30 00:51:26;;;;;;;;;0.25;0.25;16.00;99.90;;;;;;5077485;28;10248;-46
2022/03/30 00:53:57;;;;;;;;;2.00;2.00;16.00;99.90;;;;;;5094963;28;10143;-45
2022/03/30 00:56:30;;;;;;;;;1.75;1.75;16.00;99.90;;;;;;5083480;28;10922;-45
2022/03/30 00:59:07;;;;;;;;;1.00;1.00;16.00;99.90;;;;;;5082796;28;10042;-49
2022/03/30 01:01:38;;;;;;;;;0.00;0.00;16.00;99.90;;;;;;5089815;28;9959;-45
2022/03/30 01:04:09;;;;;;;;;3.00;1.00;16.00;99.90;;;;;;5095612;27;10167;-47
2022/03/30 01:06:40;;;;;;;;;3.00;1.00;15.90;99.90;;;;;;5073364;28;10222;-46
2022/03/30 01:09:11;;;;;;;;;1.00;1.00;15.90;99.90;;;;;;5079983;28;10300;-47
2022/03/30 01:11:41;;;;;;;;;0.75;0.75;16.00;99.90;;;;;;5089027;28;10233;-50
2022/03/30 01:14:15;;;;;;;;;0.75;0.75;16.00;99.90;;;;;;5083441;28;10375;-48
2022/03/30 01:16:49;;;;;;;;;1.00;1.00;15.90;99.90;;;;;;5081424;28;10302;-51
2022/03/30 01:19:20;;;;;;;;;1.00;1.00;15.90;99.90;;;;;;5083635;28;10278;-46
2022/03/30 01:21:54;;;;;;;;;1.25;1.25;15.90;99.90;;;;;;5081121;28;10318;-47
2022/03/30 01:24:26;;;;;;;;;1.00;1.00;15.80;99.90;;;;;;5082592;28;10067;-47
2022/03/30 01:26:58;;;;;;;;;1.00;1.00;15.80;99.90;;;;;;5079740;28;10215;-50
2022/03/30 01:32:26;;;;;;;;;2.00;0.50;15.80;99.90;;;;;;5086271;28;10384;-45
2022/03/30 01:35:03;;;;;;;;;1.00;1.00;15.90;99.90;;;;;;5087008;28;10268;-46
2022/03/30 01:37:34;;;;;;;;;0.00;0.00;15.80;99.90;;;;;;5090317;28;10168;-45
2022/03/30 01:40:07;;;;;;;;;0.00;0.00;15.70;99.90;;;;;;5078972;28;10240;-46
2022/03/30 01:42:39;;;;;;;;;1.00;1.00;15.80;99.90;;;;;;5089368;28;10292;-46
2022/03/30 01:45:15;;;;;;;;;1.25;1.25;15.80;99.90;;;;;;5084273;28;10429;-45
2022/03/30 01:47:59;;;;;;;;;0.25;0.25;15.70;99.90;;;;;;5078834;28;10378;-49
2022/03/30 01:50:32;;;;;;;;;1.75;1.00;15.70;99.90;;;;;;5074172;28;10227;-50
2022/03/30 01:53:02;;;;;;;;;1.00;1.00;15.70;99.90;;;;;;5084206;28;10374;-47
2022/03/30 01:55:33;;;;;;;;;0.00;0.00;15.70;99.90;;;;;;5095127;28;10515;-47
2022/03/30 01:58:05;;;;;;;;;1.00;1.00;15.70;99.90;;;;;;5076638;28;10372;-46
2022/03/30 02:00:35;;;;;;;;;1.00;1.00;15.70;99.90;;;;;;5089504;28;10282;-47
2022/03/30 02:03:06;;;;;;;;;1.00;1.00;15.70;99.90;;;;;;5088849;28;10462;-50
2022/03/30 02:05:40;;;;;;;;;1.00;1.00;15.70;99.90;;;;;;5084107;28;11048;-48
2022/03/30 02:08:11;;;;;;;;;1.25;1.25;15.70;99.90;;;;;;5079199;28;10333;-48
2022/03/30 02:10:41;;;;;;;;;1.00;1.00;15.70;99.90;;;;;;5086925;28;10363;-47
2022/03/30 02:13:11;;;;;;;;;1.00;1.00;15.70;99.90;;;;;;5090970;28;10350;-50
2022/03/30 02:15:41;;;;;;;;;0.00;0.00;15.70;99.90;;;;;;5079546;28;10380;-46
2022/03/30 02:18:12;;;;;;;;;0.75;0.75;15.60;99.90;;;;;;5080689;28;11106;-48
2022/03/30 02:20:43;;;;;;;;;0.00;0.00;15.50;99.90;;;;;;5078106;28;10495;-46
2022/03/30 02:23:16;;;;;;;;;1.00;1.00;15.50;99.90;;;;;;5088202;28;10282;-47
2022/03/30 02:25:49;;;;;;;;;0.00;0.00;15.50;99.90;;;;;;5078762;28;10448;-49
2022/03/30 02:28:20;;;;;;;;;0.50;0.50;15.40;99.90;;;;;;5091719;28;10518;-49
2022/03/30 02:30:50;;;;;;;;;0.75;0.75;15.40;99.90;;;;;;5078557;28;10568;-47
2022/03/30 02:33:23;;;;;;;;;0.00;0.00;15.40;99.90;;;;;;5087067;28;10560;-49
2022/03/30 02:35:53;;;;;;;;;2.50;1.00;15.40;99.90;;;;;;5071794;28;10308;-47
2022/03/30 02:38:24;;;;;;;;;0.00;0.00;15.40;99.90;;;;;;5089083;28;10552;-50
2022/03/30 02:40:55;;;;;;;;;1.00;1.00;15.40;99.90;;;;;;5077939;28;12422;-43
2022/03/30 02:43:27;;;;;;;;;1.00;1.00;15.40;99.90;;;;;;5091978;28;10477;-44
2022/03/30 02:45:59;;;;;;;;;3.00;1.75;15.30;99.90;;;;;;5087885;28;10561;-48
2022/03/30 02:48:33;;;;;;;;;3.00;1.25;15.30;99.90;;;;;;5083719;28;10349;-48
2022/03/30 02:51:09;;;;;;;;;1.00;1.00;15.30;99.90;;;;;;5078010;28;11171;-47
2022/03/30 02:53:40;;;;;;;;;1.00;1.00;15.20;99.90;;;;;;5083476;28;10538;-45
2022/03/30 02:56:11;;;;;;;;;1.00;1.00;15.20;99.90;;;;;;5075370;28;10711;-48
2022/03/30 02:58:41;;;;;;;;;1.50;0.25;15.20;99.90;;;;;;5081405;28;10614;-47
2022/03/30 03:01:11;;;;;;;;;1.00;1.00;15.20;99.90;;;;;;5085065;28;10433;-45
2022/03/30 03:03:44;;;;;;;;;0.00;0.00;15.20;99.90;;;;;;5084636;28;10485;-47
2022/03/30 03:06:17;;;;;;;;;1.50;1.50;15.20;99.90;;;;;;5067423;28;10427;-47
2022/03/30 03:08:48;;;;;;;;;1.75;0.00;15.20;99.90;;;;;;5075165;28;10557;-45
2022/03/30 03:11:21;;;;;;;;;0.00;0.00;15.20;99.90;;;;;;5096628;28;10576;-46
2022/03/30 03:13:54;;;;;;;;;1.00;1.00;15.20;99.90;;;;;;5071915;28;10550;-47
2022/03/30 03:16:25;;;;;;;;;1.50;0.50;15.10;99.90;;;;;;5085563;28;10921;-47
2022/03/30 03:18:58;;;;;;;;;1.00;1.00;15.10;99.90;;;;;;5080062;28;10613;-45
2022/03/30 03:21:29;;;;;;;;;0.00;0.00;15.10;99.90;;;;;;5088063;28;10705;-45
2022/03/30 03:24:01;;;;;;;;;1.00;1.00;15.10;99.90;;;;;;5085796;28;10603;-50
2022/03/30 03:26:31;;;;;;;;;0.25;0.00;15.10;99.90;;;;;;5094449;28;10680;-49
2022/03/30 03:29:03;;;;;;;;;1.00;1.00;15.00;99.90;;;;;;5089205;28;11604;-48
2022/03/30 03:31:33;;;;;;;;;0.50;0.50;15.00;99.90;;;;;;5087375;28;10814;-50
2022/03/30 03:34:04;;;;;;;;;2.25;1.50;14.90;99.90;;;;;;5085751;28;10575;-48
2022/03/30 03:36:35;;;;;;;;;1.25;1.00;14.90;99.90;;;;;;5075094;28;10718;-49
2022/03/30 03:39:07;;;;;;;;;1.25;1.25;14.90;99.90;;;;;;5080083;28;10744;-47
2022/03/30 03:41:37;;;;;;;;;1.00;1.00;14.90;99.90;;;;;;5075760;28;10772;-48
2022/03/30 03:44:11;;;;;;;;;1.25;1.25;14.90;99.90;;;;;;5084403;28;11181;-45
2022/03/30 03:46:44;;;;;;;;;1.00;1.00;14.90;99.90;;;;;;5083610;28;10754;-49
2022/03/30 03:49:13;;;;;;;;;2.25;2.25;14.90;99.90;;;;;;5081077;28;10725;-46
2022/03/30 03:51:47;;;;;;;;;1.00;1.00;14.90;99.90;;;;;;5084376;28;10866;-47
2022/03/30 03:54:20;;;;;;;;;0.00;0.00;14.90;99.90;;;;;;5092542;28;10770;-49
2022/03/30 03:56:50;;;;;;;;;3.00;1.00;14.90;99.90;;;;;;5087440;28;10615;-48
2022/03/30 03:59:20;;;;;;;;;1.00;1.00;14.80;99.90;;;;;;5069371;28;10730;-50
2022/03/30 04:01:54;;;;;;;;;0.00;0.00;14.80;99.90;;;;;;5089593;28;10722;-48
2022/03/30 04:04:31;;;;;;;;;0.00;0.00;14.90;99.90;;;;;;5070156;28;10854;-50
2022/03/30 04:07:06;;;;;;;;;2.25;1.00;14.90;99.90;;;;;;5075304;28;10792;-47
2022/03/30 04:09:36;;;;;;;;;1.00;1.00;14.80;99.90;;;;;;5086475;28;10857;-47
2022/03/30 04:12:09;;;;;;;;;1.00;1.00;14.80;99.90;;;;;;5071022;28;10717;-46
2022/03/30 04:14:39;;;;;;;;;2.25;2.25;14.80;99.90;;;;;;5082380;28;10927;-45
2022/03/30 04:17:11;;;;;;;;;1.00;1.00;14.80;99.90;;;;;;5079507;28;10932;-47
2022/03/30 04:19:44;;;;;;;;;1.00;1.00;14.70;99.90;;;;;;5077053;28;10840;-47
2022/03/30 04:22:17;;;;;;;;;1.00;1.00;14.70;99.90;;;;;;5086396;28;10814;-49
2022/03/30 04:24:51;;;;;;;;;0.00;0.00;14.70;99.90;;;;;;5076880;28;10950;-47
2022/03/30 04:27:22;;;;;;;;;3.00;1.75;14.70;99.90;;;;;;5081107;28;10815;-45
2022/03/30 04:29:53;;;;;;;;;0.50;0.50;14.70;99.90;;;;;;5081596;28;11036;-49
2022/03/30 04:32:26;;;;;;;;;1.50;1.50;14.70;99.90;;;;;;5082004;28;10662;-46
2022/03/30 04:35:01;;;;;;;;;1.00;1.00;14.60;99.90;;;;;;5077889;28;10893;-47
2022/03/30 04:37:32;;;;;;;;;2.00;2.00;14.60;99.90;;;;;;5070721;27;10716;-46
2022/03/30 04:40:05;;;;;;;;;1.00;1.00;14.60;99.90;;;;;;5079148;28;11000;-46
2022/03/30 04:42:35;;;;;;;;;1.00;1.00;14.60;99.90;;;;;;5076083;28;11054;-50
2022/03/30 04:45:07;;;;;;;;;2.00;2.00;14.60;99.90;;;;;;5071432;28;10746;-48
2022/03/30 04:47:41;;;;;;;;;1.00;1.00;14.60;99.90;;;;;;5048810;28;10976;-44
2022/03/30 04:50:11;;;;;;;;;1.25;1.25;14.60;99.90;;;;;;5078149;28;10880;-47
2022/03/30 04:52:43;;;;;;;;;1.75;0.00;14.60;99.90;;;;;;5062358;28;10920;-46
2022/03/30 04:55:16;;;;;;;;;2.00;2.00;14.60;99.90;;;;;;5074418;28;10943;-47
2022/03/30 04:57:47;;;;;;;;;1.00;1.00;14.60;99.90;;;;;;5068183;28;11083;-46
2022/03/30 05:00:19;;;;;;;;;1.00;1.00;14.60;99.90;;;;;;5054436;28;10855;-46
2022/03/30 05:02:51;;;;;;;;;0.50;0.50;14.50;99.90;;;;;;5075335;28;10983;-48
2022/03/30 05:05:21;;;;;;;;;0.75;0.75;14.50;99.90;;;;;;5073894;28;10928;-45
2022/03/30 05:07:51;;;;;;;;;2.00;2.00;14.50;99.90;;;;;;5073727;28;11039;-49
2022/03/30 05:10:23;;;;;;;;;1.00;1.00;14.50;99.90;;;;;;5081802;28;10824;-48
2022/03/30 05:12:55;;;;;;;;;1.75;1.75;14.50;99.90;;;;;;5085028;28;10764;-47
2022/03/30 05:15:30;;;;;;;;;1.00;1.00;14.40;99.90;;;;;;5071794;28;11502;-45
2022/03/30 05:18:02;;;;;;;;;1.00;1.00;14.50;99.90;;;;;;5067547;28;10749;-49
2022/03/30 05:20:35;;;;;;;;;1.25;1.25;14.50;99.90;;;;;;5068772;28;10973;-47
2022/03/30 05:23:06;;;;;;;;;2.50;1.75;14.40;99.90;;;;;;5082644;28;11641;-50
2022/03/30 05:25:37;;;;;;;;;2.25;1.50;14.40;99.90;;;;;;5062742;28;10790;-49
2022/03/30 05:28:07;;;;;;;;;1.75;1.75;14.40;99.90;;;;;;5072681;28;10965;-47
2022/03/30 05:30:38;;;;;;;;;1.50;1.50;14.40;99.90;;;;;;5073624;28;11009;-48
2022/03/30 05:33:11;;;;;;;;;1.25;1.25;14.40;99.90;;;;;;5075415;28;11027;-47
2022/03/30 05:35:42;;;;;;;;;1.00;1.00;14.40;99.90;;;;;;5074589;28;11041;-49
2022/03/30 05:38:13;;;;;;;;;1.50;1.50;14.40;99.90;;;;;;5065965;28;10790;-48
2022/03/30 05:40:44;;;;;;;;;1.00;1.00;14.40;99.90;;;;;;5071099;28;10910;-49
2022/03/30 05:43:14;;;;;;;;;1.00;1.00;14.40;99.90;;;;;;5077899;28;10872;-46
2022/03/30 05:45:45;;;;;;;;;1.00;1.00;14.40;99.90;;;;;;5066486;28;10873;-47
2022/03/30 05:48:17;;;;;;;;;1.00;1.00;14.40;99.90;;;;;;5073869;28;10899;-47
2022/03/30 05:50:47;;;;;;;;;1.25;1.25;14.40;99.90;;;;;;5070377;28;11158;-46
2022/03/30 05:53:18;;;;;;;;;1.00;1.00;14.40;99.90;;;;;;5063047;28;10872;-49
2022/03/30 05:55:49;;;;;;;;;2.25;2.25;14.40;99.90;;;;;;5074961;28;11452;-48
2022/03/30 05:58:19;;;;;;;;;2.00;2.00;14.40;99.90;;;;;;5070233;28;12109;-47
2022/03/30 06:00:51;;;;;;;;;1.00;1.00;14.30;99.90;;;;;;5069622;28;10902;-49
2022/03/30 06:03:23;;;;;;;;;1.00;1.00;14.30;99.90;;;;;;5064527;28;11085;-47
2022/03/30 06:05:54;;;;;;;;;1.00;1.00;14.20;99.90;;;;;;5071017;27;11182;-48
2022/03/30 06:08:23;;;;;;;;;1.00;1.00;14.20;99.90;;;;;;5065102;28;10820;-46
2022/03/30 06:10:55;;;;;;;;;2.25;2.00;14.20;99.90;;;;;;5075529;28;10870;-43
2022/03/30 06:13:25;;;;;;;;;1.50;1.50;14.20;99.90;;;;;;5071663;28;12000;-44
2022/03/30 06:15:56;;;;;;;;;0.25;0.25;14.20;99.90;;;;;;5072235;28;11121;-46
2022/03/30 06:18:26;;;;;;;;;2.00;2.00;14.20;99.90;;;;;;5069362;28;10885;-50
2022/03/30 06:20:57;;;;;;;;;1.00;1.00;14.20;99.90;;;;;;5070358;28;11037;-47
2022/03/30 06:23:27;;;;;;;;;1.00;1.00;14.20;99.90;;;;;;5077843;28;10856;-46
2022/03/30 06:26:01;;;;;;;;;0.00;0.00;14.10;99.90;;;;;;5066115;28;11012;-47
2022/03/30 06:28:31;;;;;;;;;0.75;0.75;14.10;99.90;;;;;;5074926;28;10753;-48
2022/03/30 06:31:02;;;;;;;;;1.00;1.00;14.10;99.90;;;;;;5070562;28;10890;-47
2022/03/30 06:33:34;;;;;;;;;0.50;0.50;14.10;99.90;;;;;;5083704;28;10934;-47
2022/03/30 06:36:05;;;;;;;;;0.00;0.00;14.10;99.90;;;;;;5068751;28;11051;-46
2022/03/30 06:38:34;;;;;;;;;0.75;0.75;14.10;99.90;;;;;;5085396;28;11002;-46
2022/03/30 06:41:07;;;;;;;;;2.00;2.00;14.10;99.90;;;;;;5067122;28;11171;-50
2022/03/30 06:43:42;;;;;;;;;0.50;0.50;14.10;99.90;;;;;;5083203;28;11074;-48
2022/03/30 06:46:15;;;;;;;;;1.00;1.00;14.10;99.90;;;;;;5071524;28;11117;-47
2022/03/30 06:48:46;;;;;;;;;1.00;1.00;14.10;99.90;;;;;;5074550;28;10903;-46
2022/03/30 06:51:18;;;;;;;;;1.50;1.50;14.10;99.90;;;;;;5066302;28;10914;-47
2022/03/30 06:53:50;;;;;;;;;1.00;1.00;14.10;99.90;;;;;;5082558;28;11118;-47
2022/03/30 06:56:20;;;;;;;;;1.00;1.00;14.10;99.90;;;;;;5065092;28;11166;-48
2022/03/30 06:58:51;;;;;;;;;0.00;0.00;14.10;99.90;;;;;;5076339;28;10854;-46
2022/03/30 07:01:21;;;;;;;;;0.00;0.00;14.10;99.90;;;;;;5067482;28;10898;-48
2022/03/30 07:03:51;;;;;;;;;1.00;1.00;14.10;99.90;;;;;;5082317;28;10928;-49
2022/03/30 07:06:21;;;;;;;;;1.00;1.00;14.10;99.90;;;;;;5068823;28;10957;-49
2022/03/30 07:11:41;;;;;;;;;3.00;1.25;14.10;99.90;;;;;;5073276;28;11691;-49
2022/03/30 07:14:12;;;;;;;;;1.00;1.00;14.10;99.90;;;;;;5071583;28;11224;-45
2022/03/30 07:16:44;;;;;;;;;2.25;1.25;14.10;99.90;;;;;;5077261;28;11082;-47
2022/03/30 07:19:14;;;;;;;;;4.00;0.50;14.10;99.90;;;;;;5081679;28;10968;-50
2022/03/30 07:21:44;;;;;;;;;2.00;1.00;14.10;99.90;;;;;;5080679;28;10951;-47
2022/03/30 07:24:13;;;;;;;;;0.75;0.75;14.10;99.90;;;;;;5079668;28;10803;-47
2022/03/30 07:26:44;;;;;;;;;1.00;1.00;14.10;99.90;;;;;;5078628;28;11172;-47
2022/03/30 07:29:14;;;;;;;;;2.50;1.00;14.10;99.90;;;;;;5073045;28;11002;-45
2022/03/30 07:31:45;;;;;;;;;0.00;0.00;14.10;99.90;;;;;;5076700;27;11276;-47
2022/03/30 07:34:17;;;;;;;;;1.00;1.00;14.00;99.90;;;;;;5075366;28;10930;-46
2022/03/30 07:36:48;;;;;;;;;1.25;1.25;14.00;99.90;;;;;;5079372;28;11076;-46
2022/03/30 07:39:18;;;;;;;;;0.00;0.00;14.00;99.90;;;;;;5075967;28;11278;-46
2022/03/30 07:41:49;;;;;;;;;0.00;0.00;14.00;99.90;;;;;;5081586;28;11018;-45
2022/03/30 07:44:21;;;;;;;;;0.50;0.50;14.00;99.90;;;;;;5066316;28;10897;-46
2022/03/30 07:46:52;;;;;;;;;0.00;0.00;14.00;99.90;;;;;;5085169;28;10747;-45
2022/03/30 07:49:22;;;;;;;;;0.00;0.00;14.00;99.90;;;;;;5072647;28;11338;-45
2022/03/30 07:51:52;;;;;;;;;1.00;1.00;14.00;99.90;;;;;;5069168;28;11117;-45
2022/03/30 07:54:23;;;;;;;;;1.00;1.00;14.00;99.90;;;;;;5070585;28;11002;-44
2022/03/30 07:56:53;;;;;;;;;0.75;0.75;14.00;99.90;;;;;;5087612;28;11006;-46
2022/03/30 07:59:27;;;;;;;;;1.00;1.00;14.00;99.90;;;;;;5074913;28;11608;-46
2022/03/30 08:01:58;;;;;;;;;0.50;0.50;14.00;99.90;;;;;;5070613;28;11083;-45
2022/03/30 08:04:28;;;;;;;;;0.50;0.50;14.00;99.90;;;;;;5072982;28;11179;-45
2022/03/30 08:06:59;;;;;;;;;0.50;0.50;14.00;99.90;;;;;;5074761;28;11743;-45
2022/03/30 08:09:30;;;;;;;;;0.25;0.25;14.00;99.90;;;;;;5072812;28;10965;-47
2022/03/30 08:12:01;;;;;;;;;0.00;0.00;14.00;99.90;;;;;;5069607;28;10897;-45
2022/03/30 08:14:32;;;;;;;;;1.50;1.50;14.00;99.90;;;;;;5080063;28;11882;-48
2022/03/30 08:17:03;;;;;;;;;1.00;1.00;14.00;99.90;;;;;;5070260;28;11130;-48
2022/03/30 08:19:34;;;;;;;;;0.00;0.00;14.00;99.90;;;;;;5079618;28;11182;-47
2022/03/30 08:24:57;;;;;;;;;1.00;1.00;14.00;99.90;;;;;;5074600;28;11231;-50
2022/03/30 08:27:32;;;;;;;;;0.75;0.75;14.00;99.90;;;;;;5066652;28;11027;-50
2022/03/30 08:30:05;;;;;;;;;0.75;0.75;13.90;99.90;;;;;;5080197;28;11039;-47
2022/03/30 08:32:37;;;;;;;;;1.25;1.25;13.90;99.90;;;;;;5072239;27;11734;-49
2022/03/30 08:35:10;;;;;;;;;0.25;0.25;13.90;99.90;;;;;;5067233;28;10945;-50
2022/03/30 08:37:40;;;;;;;;;4.00;1.00;13.90;99.90;;;;;;5073781;28;10952;-46
2022/03/30 08:40:12;;;;;;;;;2.00;1.00;13.90;99.90;;;;;;5068369;28;12276;-45
2022/03/30 08:42:44;;;;;;;;;2.75;2.00;13.90;99.90;;;;;;5077568;28;12079;-49
2022/03/30 08:45:20;;;;;;;;;1.00;1.00;13.90;99.90;;;;;;5070417;28;10843;-45
2022/03/30 08:47:51;;;;;;;;;1.00;1.00;13.90;99.90;;;;;;5078550;28;11060;-49
2022/03/30 08:50:23;;;;;;;;;1.00;1.00;13.90;99.90;;;;;;5084262;28;11083;-48
2022/03/30 08:52:55;;;;;;;;;1.00;1.00;13.90;99.90;;;;;;5071684;28;11255;-47
2022/03/30 08:55:27;;;;;;;;;1.00;1.00;13.90;99.90;;;;;;5069623;27;11060;-46
2022/03/30 08:58:00;;;;;;;;;0.25;0.25;13.90;99.90;;;;;;5076595;28;11146;-48
2022/03/30 09:00:34;;;;;;;;;3.75;1.50;13.90;99.90;;;;;;5066747;28;11035;-45
2022/03/30 09:03:07;;;;;;;;;2.25;1.00;13.80;99.90;;;;;;5071825;28;11126;-47
2022/03/30 09:05:38;;;;;;;;;2.75;1.75;13.80;99.90;;;;;;5084492;28;11440;-46
2022/03/30 09:08:21;;;;;;;;;0.50;0.50;13.80;99.90;;;;;;5069019;28;11094;-46
2022/03/30 09:10:53;;;;;;;;;0.50;0.50;13.80;99.90;;;;;;5067201;28;11036;-46
2022/03/30 09:13:24;;;;;;;;;1.00;1.00;13.80;99.90;;;;;;5072716;28;11116;-47
2022/03/30 09:15:54;;;;;;;;;1.00;1.00;13.80;99.90;;;;;;5079304;28;11139;-46
2022/03/30 09:18:24;;;;;;;;;1.00;1.00;13.80;99.90;;;;;;5073488;28;11033;-48
2022/03/30 09:20:57;;;;;;;;;0.00;0.00;13.80;99.90;;;;;;5067998;27;10980;-46
2022/03/30 09:23:29;;;;;;;;;1.25;1.25;13.80;99.90;;;;;;5076955;28;11042;-49
2022/03/30 09:26:01;;;;;;;;;0.50;0.00;13.80;99.90;;;;;;5069427;28;11238;-48
2022/03/30 09:28:32;;;;;;;;;0.00;0.00;13.80;99.90;;;;;;5076387;28;11471;-47
2022/03/30 09:31:03;;;;;;;;;0.50;0.50;13.70;99.90;;;;;;5067328;28;11193;-46
2022/03/30 09:33:34;;;;;;;;;1.00;1.00;13.70;99.90;;;;;;5069619;28;11193;-51
2022/03/30 09:36:05;;;;;;;;;0.25;0.25;13.80;99.90;;;;;;5079955;28;11126;-45
2022/03/30 09:38:38;;;;;;;;;1.25;1.25;13.70;99.90;;;;;;5074411;28;11891;-44
2022/03/30 09:41:09;;;;;;;;;1.00;1.00;13.70;99.90;;;;;;5071081;28;11042;-47
2022/03/30 09:43:41;;;;;;;;;2.00;2.00;13.70;99.90;;;;;;5071204;28;11473;-45
2022/03/30 09:46:15;;;;;;;;;1.00;1.00;13.70;99.90;;;;;;5075156;28;12264;-45
2022/03/30 09:48:50;;;;;;;;;2.50;1.00;13.70;99.90;;;;;;5071779;28;12283;-45
2022/03/30 09:51:22;;;;;;;;;0.75;0.75;13.70;99.90;;;;;;5071312;28;11458;-46
2022/03/30 09:53:52;;;;;;;;;1.00;1.00;13.70;99.90;;;;;;5071182;28;11224;-49
2022/03/30 09:56:24;;;;;;;;;0.75;0.75;13.70;99.90;;;;;;5070386;28;11100;-46
2022/03/30 09:59:05;;;;;;;;;2.00;2.00;13.70;99.90;;;;;;5072684;28;11156;-46
2022/03/30 10:01:35;;;;;;;;;1.50;1.50;13.60;99.90;;;;;;5067469;28;12670;-45
2022/03/30 10:04:08;;;;;;;;;1.75;1.75;13.60;99.90;;;;;;5074186;28;11431;-47
2022/03/30 10:06:40;;;;;;;;;0.75;0.75;13.60;99.90;;;;;;5072710;28;11584;-46
2022/03/30 10:09:16;;;;;;;;;0.50;0.50;13.60;99.90;;;;;;5078682;28;11436;-49
2022/03/30 10:11:49;;;;;;;;;0.75;0.75;13.60;99.90;;;;;;5071190;28;11670;-46
2022/03/30 10:14:20;;;;;;;;;0.00;0.00;13.60;99.90;;;;;;5071648;28;11780;-47
2022/03/30 10:16:51;;;;;;;;;0.00;0.00;13.60;99.90;;;;;;5067779;28;11131;-44
2022/03/30 10:19:21;;;;;;;;;0.00;0.00;13.60;99.90;;;;;;5073216;27;11195;-46
2022/03/30 10:22:10;;;;;;;;;1.00;1.00;13.50;99.90;;;;;;5079740;28;10909;-45
2022/03/30 10:25:06;;;;;;;;;0.25;0.25;13.60;99.90;;;;;;5073478;28;11195;-45
2022/03/30 10:28:02;;;;;;;;;0.00;0.00;13.50;99.90;;;;;;5060817;28;11139;-47
2022/03/30 10:30:33;;;;;;;;;0.00;0.00;13.50;99.90;;;;;;5066415;28;11125;-45
2022/03/30 10:33:04;;;;;;;;;1.00;1.00;13.50;99.90;;;;;;5067266;28;11195;-46
2022/03/30 10:35:50;;;;;;;;;0.25;0.25;13.50;99.90;;;;;;5067688;28;11454;-48
2022/03/30 10:38:20;;;;;;;;;0.00;0.00;13.40;99.90;;;;;;5067282;28;11903;-47
2022/03/30 10:41:09;;;;;;;;;0.00;0.00;13.50;99.90;;;;;;5070274;28;11096;-45
2022/03/30 10:43:39;;;;;;;;;0.00;0.00;13.50;99.90;;;;;;5072702;28;12164;-47
2022/03/30 10:46:09;;;;;;;;;1.00;1.00;13.50;99.90;;;;;;5069542;28;11437;-48
2022/03/30 10:48:40;;;;;;;;;0.00;0.00;13.40;99.90;;;;;;5080571;28;11855;-48
2022/03/30 10:51:13;;;;;;;;;1.00;1.00;13.50;99.90;;;;;;5064819;28;11478;-48
2022/03/30 10:53:49;;;;;;;;;2.75;1.00;13.40;99.90;;;;;;5070266;28;11453;-45
2022/03/30 10:56:21;;;;;;;;;0.25;0.25;13.40;99.90;;;;;;5062825;28;12326;-46
2022/03/30 10:59:00;;;;;;;;;3.00;1.00;13.40;99.90;;;;;;5076949;28;11444;-47
2022/03/30 11:01:31;;;;;;;;;2.25;0.00;13.40;99.90;;;;;;5077407;28;11449;-46
2022/03/30 11:04:05;;;;;;;;;1.00;1.00;13.40;99.90;;;;;;5076194;28;11173;-48
2022/03/30 11:06:38;;;;;;;;;0.25;0.00;13.40;99.90;;;;;;5071712;28;11448;-46
2022/03/30 11:09:28;;;;;;;;;1.00;1.00;13.40;99.90;;;;;;5080187;28;12251;-48
2022/03/30 11:12:13;;;;;;;;;0.00;0.00;13.30;99.90;;;;;;5075824;28;11437;-48
2022/03/30 11:15:03;;;;;;;;;1.00;1.00;13.40;99.90;;;;;;5075739;28;11425;-45
2022/03/30 11:17:35;;;;;;;;;1.00;0.00;13.30;99.90;;;;;;5072406;28;11104;-43
2022/03/30 11:20:14;;;;;;;;;1.25;1.25;13.30;99.90;;;;;;5070049;27;11116;-47
2022/03/30 11:22:46;;;;;;;;;1.25;1.00;13.40;99.90;;;;;;5076025;28;11120;-49
2022/03/30 11:25:23;;;;;;;;;1.00;1.00;13.40;99.90;;;;;;5070025;28;12675;-47
2022/03/30 11:28:01;;;;;;;;;1.00;1.00;13.40;99.90;;;;;;5071962;28;11480;-48
2022/03/30 11:30:41;;;;;;;;;1.25;1.25;13.40;99.90;;;;;;5068212;28;11152;-46
2022/03/30 11:33:19;;;;;;;;;0.00;0.00;13.30;99.90;;;;;;5071758;28;11208;-49
2022/03/30 11:35:52;;;;;;;;;0.00;0.00;13.30;99.90;;;;;;5073248;28;11000;-46
2022/03/30 11:38:28;;;;;;;;;0.50;0.50;13.30;99.90;;;;;;5081105;28;11130;-49
2022/03/30 11:41:06;;;;;;;;;0.75;0.75;13.30;99.90;;;;;;5071794;28;11477;-48
2022/03/30 11:46:37;;;;;;;;;1.00;1.00;13.20;99.90;;;;;;5071212;28;11412;-46
2022/03/30 11:49:08;;;;;;;;;2.00;0.25;13.20;99.90;;;;;;5063861;28;11460;-45
2022/03/30 11:51:39;;;;;;;;;1.00;1.00;13.20;99.90;;;;;;5064925;28;11603;-48
2022/03/30 11:54:15;;;;;;;;;0.00;0.00;13.20;99.90;;;;;;5074944;28;11441;-46
2022/03/30 11:56:45;;;;;;;;;0.00;0.00;13.20;99.90;;;;;;5073142;28;11432;-48
2022/03/30 11:59:19;;;;;;;;;1.00;1.00;13.30;99.90;;;;;;5067450;28;11417;-46
2022/03/30 12:01:52;;;;;;;;;0.00;0.00;13.30;99.90;;;;;;5081606;28;11166;-48
2022/03/30 12:04:25;;;;;;;;;0.00;0.00;13.20;99.90;;;;;;5077251;28;11436;-47
2022/03/30 12:06:55;;;;;;;;;2.00;2.00;13.20;99.90;;;;;;5076644;28;11115;-46
2022/03/30 12:09:26;;;;;;;;;0.00;0.00;13.30;99.90;;;;;;5068648;28;11261;-48
2022/03/30 12:12:01;;;;;;;;;1.00;1.00;13.30;99.90;;;;;;5085608;28;11447;-46
2022/03/30 12:14:32;;;;;;;;;0.00;0.00;13.20;99.90;;;;;;5072727;28;11107;-48
2022/03/30 12:17:04;;;;;;;;;0.75;0.75;13.20;99.90;;;;;;5091737;28;11023;-46
2022/03/30 12:19:36;;;;;;;;;1.00;1.00;13.10;99.90;;;;;;5081251;28;11152;-47
2022/03/30 12:22:07;;;;;;;;;1.00;1.00;13.10;99.90;;;;;;5084134;28;11419;-45
2022/03/30 12:24:37;;;;;;;;;1.00;1.00;13.10;99.90;;;;;;5077342;28;11138;-46
2022/03/30 12:27:07;;;;;;;;;2.50;1.00;13.10;99.90;;;;;;5084196;28;11407;-44
2022/03/30 12:29:38;;;;;;;;;0.00;0.00;13.10;99.90;;;;;;5067286;28;11600;-48
2022/03/30 12:32:10;;;;;;;;;0.00;0.00;13.10;99.90;;;;;;5079588;28;11168;-46
2022/03/30 12:34:42;;;;;;;;;0.00;0.00;13.10;99.90;;;;;;5077816;28;11224;-47
2022/03/30 12:37:20;;;;;;;;;0.00;0.00;13.10;99.90;;;;;;5075969;28;11419;-47
2022/03/30 12:39:49;;;;;;;;;0.00;0.00;13.10;99.90;;;;;;5082517;28;11432;-46
2022/03/30 12:42:25;;;;;;;;;1.00;1.00;13.10;99.90;;;;;;5077732;28;11150;-52
2022/03/30 12:45:02;;;;;;;;;0.00;0.00;13.10;99.90;;;;;;5076119;28;11041;-44
2022/03/30 12:47:34;;;;;;;;;1.00;1.00;13.10;99.90;;;;;;5070294;28;11452;-48
2022/03/30 12:50:13;;;;;;;;;1.00;1.00;13.10;99.90;;;;;;5076779;27;11458;-47
2022/03/30 12:52:48;;;;;;;;;0.00;0.00;13.10;99.90;;;;;;5070426;28;11168;-46
2022/03/30 12:55:27;;;;;;;;;0.75;0.75;13.10;99.90;;;;;;5079040;28;11149;-45
2022/03/30 12:58:23;;;;;;;;;1.75;1.75;13.10;99.90;;;;;;5068193;28;11499;-44
2022/03/30 13:00:56;;;;;;;;;2.00;0.00;13.10;99.90;;;;;;5072813;28;11559;-47
2022/03/30 13:03:34;;;;;;;;;0.75;0.75;13.00;99.90;;;;;;5075233;28;12219;-45
2022/03/30 13:06:08;;;;;;;;;0.00;0.00;13.00;99.90;;;;;;5078797;28;11405;-45
2022/03/30 13:08:41;;;;;;;;;2.00;0.00;13.00;99.90;;;;;;5071868;28;11516;-47
2022/03/30 13:11:10;;;;;;;;;1.00;0.00;13.00;99.90;;;;;;5069771;28;11411;-45
2022/03/30 13:13:43;;;;;;;;;0.00;0.00;12.90;99.90;;;;;;5079819;28;11411;-47
2022/03/30 13:16:18;;;;;;;;;0.25;0.25;13.00;99.90;;;;;;5073939;28;11431;-45
2022/03/30 13:19:13;;;;;;;;;2.25;1.00;13.00;99.90;;;;;;5065218;28;12026;-49
2022/03/30 13:21:47;;;;;;;;;2.00;0.00;13.00;99.90;;;;;;5080924;28;11543;-49
2022/03/30 13:24:23;;;;;;;;;1.50;1.50;13.00;99.90;;;;;;5074813;28;11503;-45